Terminal Aerodrome Forecast
Issued by NWS Denver/Boulder, CO

Home | Current Version | Previous Version | Text Only | Print | Product List | Glossary On
Versions: 1 2 3 4 5 6 7 8 9 10 11 12 13 14 15 16 17 18 19 20 21 22 23 24 25 26 27 28 29 30
000
FTUS45 KBOU 160100 AAA
TAFDEN
TAF AMD
KDEN 160100Z 1601/1706 30004KT P6SM OVC035
      TEMPO 1601/1605 3SM -SN BR BKN018
     FM160500 32004KT 5SM -SN BR BKN012 OVC020
      TEMPO 1605/1609 1SM -SN BR BKN007
     FM160900 34008KT 3SM -SN BR OVC012
      TEMPO 1609/1613 3/4SM -SN BR BKN004
     FM161300 35013KT P6SM VCSH SCT010 OVC020
     FM162100 34010KT P6SM FEW035 SCT070 BKN120
     FM170200 23006KT P6SM FEW050 SCT100 BKN220=

USA.gov is the U.S. government's official web portal to all federal, state and local government web resources and services.